createdAt,value
2023-03-15T00:00:58.000Z,274.9
2023-03-15T00:02:25.000Z,274.9
2023-03-15T00:04:31.000Z,274.84
2023-03-15T00:05:58.000Z,274.9
2023-03-15T00:08:04.000Z,274.84
2023-03-15T00:09:30.000Z,274.77
2023-03-15T00:11:36.000Z,274.84
2023-03-15T00:13:03.000Z,274.77
2023-03-15T00:15:09.000Z,274.65
2023-03-15T00:16:36.000Z,274.65
2023-03-15T00:18:42.000Z,274.65
2023-03-15T00:20:08.000Z,274.65
2023-03-15T00:22:15.000Z,274.65
2023-03-15T00:25:06.000Z,274.59
2023-03-15T00:26:32.000Z,274.59
2023-03-15T00:28:39.000Z,274.52
2023-03-15T00:30:05.000Z,274.59
2023-03-15T00:32:11.000Z,274.46
2023-03-15T00:33:38.000Z,274.46
2023-03-15T00:35:44.000Z,274.46
2023-03-15T00:37:10.000Z,274.46
2023-03-15T00:39:16.000Z,274.34
2023-03-15T00:40:43.000Z,274.34
2023-03-15T00:42:49.000Z,274.27
2023-03-15T00:44:16.000Z,274.21
2023-03-15T00:46:22.000Z,274.27
2023-03-15T00:47:48.000Z,274.34
2023-03-15T00:49:54.000Z,274.34
2023-03-15T00:51:21.000Z,274.27
2023-03-15T00:53:27.000Z,274.4
2023-03-15T00:54:54.000Z,274.4
2023-03-15T00:57:00.000Z,274.34
2023-03-15T00:58:26.000Z,274.27
2023-03-15T01:00:32.000Z,274.27
2023-03-15T01:03:24.000Z,274.27
2023-03-15T01:04:50.000Z,274.21
2023-03-15T01:06:56.000Z,274.21
2023-03-15T01:08:23.000Z,274.21
2023-03-15T01:10:29.000Z,274.21
2023-03-15T01:11:55.000Z,274.15
2023-03-15T01:14:02.000Z,274.27
2023-03-15T01:15:28.000Z,274.21
2023-03-15T01:17:34.000Z,274.15
2023-03-15T01:19:01.000Z,274.15
2023-03-15T01:21:07.000Z,274.02
2023-03-15T01:22:33.000Z,274.09
2023-03-15T01:24:39.000Z,274.02
2023-03-15T01:26:06.000Z,273.96
2023-03-15T01:28:12.000Z,273.96
2023-03-15T01:29:38.000Z,274.02
2023-03-15T01:31:45.000Z,274.02
2023-03-15T01:33:11.000Z,274.02
2023-03-15T01:35:17.000Z,273.96
2023-03-15T01:36:44.000Z,273.9
2023-03-15T01:38:50.000Z,273.84
2023-03-15T01:41:41.000Z,273.84
2023-03-15T01:43:08.000Z,273.84
2023-03-15T01:45:14.000Z,273.9
2023-03-15T01:46:40.000Z,274.02
2023-03-15T01:48:46.000Z,274.02
2023-03-15T01:50:13.000Z,273.96
2023-03-15T01:52:19.000Z,273.9
2023-03-15T01:53:45.000Z,273.84
2023-03-15T01:55:52.000Z,273.77
2023-03-15T01:57:18.000Z,273.77
2023-03-15T01:59:24.000Z,273.84
2023-03-15T02:00:51.000Z,273.9
2023-03-15T02:02:57.000Z,273.84
2023-03-15T02:04:24.000Z,273.77
2023-03-15T02:06:28.000Z,273.65
2023-03-15T02:07:54.000Z,273.59
2023-03-15T02:09:58.000Z,273.52
2023-03-15T02:11:22.000Z,273.59
2023-03-15T02:13:28.000Z,273.52
2023-03-15T02:14:53.000Z,273.59
2023-03-15T02:16:56.000Z,273.59
2023-03-15T02:19:47.000Z,273.34
2023-03-15T02:21:11.000Z,273.46
2023-03-15T02:23:15.000Z,273.52
2023-03-15T02:24:40.000Z,273.59
2023-03-15T02:26:43.000Z,273.52
2023-03-15T02:28:08.000Z,273.46
2023-03-15T02:30:11.000Z,273.52
2023-03-15T02:31:36.000Z,273.52
2023-03-15T02:33:40.000Z,273.52
2023-03-15T02:35:04.000Z,273.59
2023-03-15T02:37:08.000Z,273.59
2023-03-15T02:38:33.000Z,273.52
2023-03-15T02:40:37.000Z,273.52
2023-03-15T02:42:01.000Z,273.59
2023-03-15T02:44:05.000Z,273.59
2023-03-15T02:45:29.000Z,273.59
2023-03-15T02:47:35.000Z,273.59
2023-03-15T02:49:00.000Z,273.59
2023-03-15T02:51:04.000Z,273.59
2023-03-15T02:52:29.000Z,273.65
2023-03-15T02:54:34.000Z,273.65
2023-03-15T02:57:23.000Z,273.65
2023-03-15T02:58:48.000Z,273.65
2023-03-15T03:00:52.000Z,273.59
2023-03-15T03:02:17.000Z,273.59
2023-03-15T03:04:21.000Z,273.59
2023-03-15T03:05:47.000Z,273.59
2023-03-15T03:07:51.000Z,273.59
2023-03-15T03:09:17.000Z,273.59
2023-03-15T03:11:20.000Z,273.59
2023-03-15T03:12:45.000Z,273.65
2023-03-15T03:14:51.000Z,273.65
2023-03-15T03:16:17.000Z,273.65
2023-03-15T03:18:23.000Z,273.77
2023-03-15T03:19:50.000Z,273.77
2023-03-15T03:21:56.000Z,273.77
2023-03-15T03:23:22.000Z,273.84
2023-03-15T03:25:28.000Z,273.84
2023-03-15T03:26:55.000Z,273.9
2023-03-15T03:29:01.000Z,273.9
2023-03-15T03:30:27.000Z,273.9
2023-03-15T03:32:34.000Z,273.9
2023-03-15T03:35:25.000Z,273.96
2023-03-15T03:36:51.000Z,273.96
2023-03-15T03:38:57.000Z,273.96
2023-03-15T03:40:24.000Z,273.9
2023-03-15T03:42:30.000Z,273.9
2023-03-15T03:43:57.000Z,273.96
2023-03-15T03:46:03.000Z,273.96
2023-03-15T03:47:29.000Z,273.96
2023-03-15T03:49:35.000Z,273.96
2023-03-15T03:51:02.000Z,274.02
2023-03-15T03:53:08.000Z,274.02
2023-03-15T03:54:35.000Z,274.09
2023-03-15T03:56:41.000Z,274.09
2023-03-15T03:58:08.000Z,274.02
2023-03-15T04:00:14.000Z,274.02
2023-03-15T04:01:40.000Z,274.09
2023-03-15T04:03:46.000Z,274.09
2023-03-15T04:05:13.000Z,274.09
2023-03-15T04:07:19.000Z,274.09
2023-03-15T04:08:46.000Z,274.09
2023-03-15T04:10:52.000Z,274.09
2023-03-15T04:13:43.000Z,274.09
2023-03-15T04:15:09.000Z,274.09
2023-03-15T04:17:16.000Z,274.09
2023-03-15T04:18:42.000Z,274.09
2023-03-15T04:20:48.000Z,274.09
2023-03-15T04:22:15.000Z,274.09
2023-03-15T04:24:21.000Z,274.09
2023-03-15T04:25:47.000Z,274.15
2023-03-15T04:27:53.000Z,274.15
2023-03-15T04:29:20.000Z,274.15
2023-03-15T04:31:26.000Z,274.09
2023-03-15T04:32:53.000Z,274.09
2023-03-15T04:34:59.000Z,274.09
2023-03-15T04:36:25.000Z,274.09
2023-03-15T04:38:31.000Z,274.09
2023-03-15T04:39:58.000Z,274.09
2023-03-15T04:42:04.000Z,274.02
2023-03-15T04:43:31.000Z,274.09
2023-03-15T04:45:37.000Z,274.02
2023-03-15T04:47:03.000Z,274.02
2023-03-15T04:49:09.000Z,274.02
2023-03-15T04:52:00.000Z,273.96
2023-03-15T04:53:27.000Z,273.96
2023-03-15T04:55:33.000Z,273.96
2023-03-15T04:56:59.000Z,273.96
2023-03-15T04:59:05.000Z,273.96
2023-03-15T05:00:32.000Z,273.9
2023-03-15T05:02:38.000Z,273.9
2023-03-15T05:04:05.000Z,273.9
2023-03-15T05:06:11.000Z,273.84
2023-03-15T05:07:37.000Z,273.84
2023-03-15T05:09:43.000Z,273.77
2023-03-15T05:11:10.000Z,273.77
2023-03-15T05:13:16.000Z,273.84
2023-03-15T05:14:43.000Z,273.84
2023-03-15T05:16:49.000Z,273.84
2023-03-15T05:18:15.000Z,273.84
2023-03-15T05:20:21.000Z,273.84
2023-03-15T05:21:48.000Z,273.84
2023-03-15T05:23:54.000Z,273.84
2023-03-15T05:25:21.000Z,273.84
2023-03-15T05:27:27.000Z,273.84
2023-03-15T05:30:18.000Z,273.9
2023-03-15T05:31:44.000Z,273.9
2023-03-15T05:33:50.000Z,273.84
2023-03-15T05:35:17.000Z,273.9
2023-03-15T05:37:23.000Z,273.84
2023-03-15T05:38:49.000Z,273.84
2023-03-15T05:40:56.000Z,273.77
2023-03-15T05:42:22.000Z,273.84
2023-03-15T05:44:28.000Z,273.84
2023-03-15T05:45:55.000Z,273.84
2023-03-15T05:48:01.000Z,273.84
2023-03-15T05:49:27.000Z,273.84
2023-03-15T05:51:33.000Z,273.84
2023-03-15T05:53:00.000Z,273.84
2023-03-15T05:55:06.000Z,273.77
2023-03-15T05:56:33.000Z,273.71
2023-03-15T05:58:39.000Z,273.84
2023-03-15T06:00:05.000Z,273.84
2023-03-15T06:02:11.000Z,273.77
2023-03-15T06:03:38.000Z,273.84
2023-03-15T06:05:44.000Z,273.77
2023-03-15T06:08:36.000Z,273.77
2023-03-15T06:10:02.000Z,273.84
2023-03-15T06:12:08.000Z,273.77
2023-03-15T06:13:35.000Z,273.9
2023-03-15T06:15:41.000Z,273.84
2023-03-15T06:17:07.000Z,273.9
2023-03-15T06:19:14.000Z,273.9
2023-03-15T06:20:40.000Z,273.9
2023-03-15T06:22:46.000Z,273.84
2023-03-15T06:24:13.000Z,273.84
2023-03-15T06:26:19.000Z,273.84
2023-03-15T06:27:46.000Z,273.9
2023-03-15T06:29:52.000Z,273.96
2023-03-15T06:31:18.000Z,273.84
2023-03-15T06:33:24.000Z,273.9
2023-03-15T06:34:51.000Z,274.02
2023-03-15T06:36:57.000Z,274.02
2023-03-15T06:38:24.000Z,274.02
2023-03-15T06:40:30.000Z,274.02
2023-03-15T06:41:56.000Z,274.02
2023-03-15T06:44:03.000Z,274.02
2023-03-15T06:46:53.000Z,273.96
2023-03-15T06:48:20.000Z,274.09
2023-03-15T06:50:26.000Z,274.15
2023-03-15T06:52:08.000Z,274.15
2023-03-15T06:54:14.000Z,274.15
2023-03-15T06:55:41.000Z,274.15
2023-03-15T06:57:47.000Z,274.15
2023-03-15T06:59:14.000Z,274.15
2023-03-15T07:01:20.000Z,274.27
2023-03-15T07:02:46.000Z,274.27
2023-03-15T07:04:53.000Z,274.27
2023-03-15T07:06:19.000Z,274.34
2023-03-15T07:08:25.000Z,274.27
2023-03-15T07:09:52.000Z,274.21
2023-03-15T07:11:59.000Z,274.34
2023-03-15T07:13:25.000Z,274.34
2023-03-15T07:15:32.000Z,274.34
2023-03-15T07:16:58.000Z,274.4
2023-03-15T07:19:04.000Z,274.4
2023-03-15T07:20:31.000Z,274.46
2023-03-15T07:22:39.000Z,274.46
2023-03-15T07:25:30.000Z,274.52
2023-03-15T07:27:06.000Z,274.52
2023-03-15T07:29:12.000Z,274.59
2023-03-15T07:30:39.000Z,274.59
2023-03-15T07:32:45.000Z,274.65
2023-03-15T07:34:12.000Z,274.65
2023-03-15T07:36:18.000Z,274.65
2023-03-15T07:37:44.000Z,274.65
2023-03-15T07:39:50.000Z,274.65
2023-03-15T07:41:17.000Z,274.71
2023-03-15T07:43:23.000Z,274.59
2023-03-15T07:44:50.000Z,274.59
2023-03-15T07:46:56.000Z,274.71
2023-03-15T07:48:23.000Z,274.71
2023-03-15T07:50:29.000Z,274.71
2023-03-15T07:51:55.000Z,274.71
2023-03-15T07:54:02.000Z,274.71
2023-03-15T07:55:28.000Z,274.71
2023-03-15T07:57:34.000Z,274.77
2023-03-15T07:59:01.000Z,274.84
2023-03-15T08:01:07.000Z,274.9
2023-03-15T08:03:58.000Z,274.9
2023-03-15T08:05:25.000Z,274.9
2023-03-15T08:07:33.000Z,274.9
2023-03-15T08:08:59.000Z,274.96
2023-03-15T08:11:05.000Z,274.9
2023-03-15T08:12:32.000Z,274.9
2023-03-15T08:14:38.000Z,274.96
2023-03-15T08:16:05.000Z,274.96
2023-03-15T08:18:11.000Z,275.02
2023-03-15T08:19:37.000Z,275.09
2023-03-15T08:21:43.000Z,275.15
2023-03-15T08:23:10.000Z,275.21
2023-03-15T08:25:16.000Z,275.34
2023-03-15T08:26:43.000Z,275.4
2023-03-15T08:28:49.000Z,275.46
2023-03-15T08:30:15.000Z,275.46
2023-03-15T08:32:21.000Z,275.46
2023-03-15T08:33:48.000Z,275.34
2023-03-15T08:35:54.000Z,275.21
2023-03-15T08:37:21.000Z,275.21
2023-03-15T08:39:27.000Z,275.34
2023-03-15T08:42:18.000Z,275.4
2023-03-15T08:43:45.000Z,275.46
2023-03-15T08:45:51.000Z,275.46
2023-03-15T08:47:26.000Z,275.4
2023-03-15T08:49:32.000Z,275.34
2023-03-15T08:50:58.000Z,275.27
2023-03-15T08:53:04.000Z,275.21
2023-03-15T08:54:31.000Z,275.02
2023-03-15T08:56:37.000Z,275.02
2023-03-15T08:58:03.000Z,275.09
2023-03-15T09:00:09.000Z,275.02
2023-03-15T09:01:36.000Z,274.9
2023-03-15T09:03:42.000Z,275.02
2023-03-15T09:05:09.000Z,275.02
2023-03-15T09:07:15.000Z,275.15
2023-03-15T09:08:41.000Z,275.21
2023-03-15T09:10:47.000Z,275.15
2023-03-15T09:12:14.000Z,275.09
2023-03-15T09:14:20.000Z,275.27
2023-03-15T09:15:46.000Z,275.34
2023-03-15T09:17:52.000Z,275.46
2023-03-15T09:20:44.000Z,275.4
2023-03-15T09:22:10.000Z,275.4
2023-03-15T09:24:27.000Z,275.4
2023-03-15T09:25:54.000Z,275.46
2023-03-15T09:28:00.000Z,275.59
2023-03-15T09:29:27.000Z,275.59
2023-03-15T09:31:33.000Z,275.52
2023-03-15T09:32:59.000Z,275.59
2023-03-15T09:35:05.000Z,275.65
2023-03-15T09:36:32.000Z,275.65
2023-03-15T09:38:38.000Z,275.65
2023-03-15T09:40:05.000Z,275.59
2023-03-15T09:42:11.000Z,275.52
2023-03-15T09:43:37.000Z,275.46
2023-03-15T09:45:43.000Z,275.4
2023-03-15T09:47:10.000Z,275.46
2023-03-15T09:49:16.000Z,275.46
2023-03-15T09:50:43.000Z,275.46
2023-03-15T09:52:49.000Z,275.59
2023-03-15T09:54:16.000Z,275.65
2023-03-15T09:56:23.000Z,275.52
2023-03-15T09:59:14.000Z,275.59
2023-03-15T10:00:41.000Z,275.65
2023-03-15T10:02:47.000Z,275.65
2023-03-15T10:04:13.000Z,275.59
2023-03-15T10:06:20.000Z,275.65
2023-03-15T10:07:46.000Z,275.65
2023-03-15T10:09:52.000Z,275.52
2023-03-15T10:11:19.000Z,275.52
2023-03-15T10:13:25.000Z,275.52
2023-03-15T10:14:51.000Z,275.59
2023-03-15T10:16:57.000Z,275.59
2023-03-15T10:18:24.000Z,275.59
2023-03-15T10:20:30.000Z,275.65
2023-03-15T10:21:56.000Z,275.59
2023-03-15T10:24:03.000Z,275.65
2023-03-15T10:25:29.000Z,275.65
2023-03-15T10:27:35.000Z,275.59
2023-03-15T10:29:02.000Z,275.59
2023-03-15T10:31:08.000Z,275.77
2023-03-15T10:32:36.000Z,275.84
2023-03-15T10:34:43.000Z,275.77
2023-03-15T10:37:36.000Z,275.84
2023-03-15T10:39:03.000Z,275.77
2023-03-15T10:41:09.000Z,275.84
2023-03-15T10:42:37.000Z,275.84
2023-03-15T10:44:44.000Z,275.84
2023-03-15T10:46:10.000Z,275.71
2023-03-15T10:48:17.000Z,275.71
2023-03-15T10:49:43.000Z,275.71
2023-03-15T10:51:49.000Z,275.65
2023-03-15T10:53:16.000Z,275.65
2023-03-15T10:55:22.000Z,275.77
2023-03-15T10:56:48.000Z,275.77
2023-03-15T10:58:54.000Z,275.77
2023-03-15T11:00:37.000Z,275.77
2023-03-15T11:02:43.000Z,275.77
2023-03-15T11:04:09.000Z,275.84
2023-03-15T11:06:15.000Z,276.02
2023-03-15T11:07:42.000Z,276.09
2023-03-15T11:09:48.000Z,276.09
2023-03-15T11:11:15.000Z,276.02
2023-03-15T11:13:21.000Z,276.15
2023-03-15T11:16:12.000Z,276.15
2023-03-15T11:17:39.000Z,276.15
2023-03-15T11:19:45.000Z,276.15
2023-03-15T11:21:11.000Z,276.15
2023-03-15T11:23:17.000Z,276.21
2023-03-15T11:24:44.000Z,276.34
2023-03-15T11:26:50.000Z,276.27
2023-03-15T11:28:17.000Z,276.34
2023-03-15T11:30:23.000Z,276.52
2023-03-15T11:31:49.000Z,276.77
2023-03-15T11:33:56.000Z,276.96
2023-03-15T11:35:22.000Z,277.02
2023-03-15T11:37:28.000Z,277.02
2023-03-15T11:38:55.000Z,277.02
2023-03-15T11:41:01.000Z,276.9
2023-03-15T11:42:27.000Z,276.77
2023-03-15T11:44:34.000Z,276.71
2023-03-15T11:46:00.000Z,276.59
2023-03-15T11:48:06.000Z,276.21
2023-03-15T11:49:33.000Z,275.96
2023-03-15T11:51:39.000Z,275.4
2023-03-15T11:54:30.000Z,274.9
2023-03-15T11:55:57.000Z,274.84
2023-03-15T11:58:03.000Z,274.59
2023-03-15T11:59:29.000Z,274.52
2023-03-15T12:01:36.000Z,274.52
2023-03-15T12:03:02.000Z,274.65
2023-03-15T12:05:08.000Z,274.71
2023-03-15T12:06:42.000Z,274.9
2023-03-15T12:08:49.000Z,275.09
2023-03-15T12:10:15.000Z,275.21
2023-03-15T12:12:21.000Z,275.27
2023-03-15T12:13:48.000Z,275.21
2023-03-15T12:15:54.000Z,275.15
2023-03-15T12:17:20.000Z,275.02
2023-03-15T12:19:26.000Z,275.09
2023-03-15T12:20:53.000Z,275.09
2023-03-15T12:22:59.000Z,275.09
2023-03-15T12:24:26.000Z,275.15
2023-03-15T12:26:32.000Z,275.21
2023-03-15T12:27:58.000Z,275.4
2023-03-15T12:30:04.000Z,275.71
2023-03-15T12:32:55.000Z,275.84
2023-03-15T12:34:22.000Z,275.84
2023-03-15T12:36:28.000Z,276.02
2023-03-15T12:37:55.000Z,276.02
2023-03-15T12:40:01.000Z,276.21
2023-03-15T12:41:27.000Z,276.27
2023-03-15T12:43:34.000Z,276.27
2023-03-15T12:45:00.000Z,276.46
2023-03-15T12:47:06.000Z,276.59
2023-03-15T12:48:33.000Z,276.52
2023-03-15T12:50:39.000Z,276.77
2023-03-15T12:52:05.000Z,276.9
2023-03-15T12:54:12.000Z,276.9
2023-03-15T12:55:38.000Z,277.02
2023-03-15T12:57:44.000Z,277.09
2023-03-15T12:59:11.000Z,277.09
2023-03-15T13:01:17.000Z,277.09
2023-03-15T13:02:43.000Z,277.21
2023-03-15T13:04:50.000Z,277.34
2023-03-15T13:06:16.000Z,277.15
2023-03-15T13:08:22.000Z,277.09
2023-03-15T13:11:14.000Z,277.21
2023-03-15T13:12:40.000Z,277.27
2023-03-15T13:14:46.000Z,277.46
2023-03-15T13:16:13.000Z,277.46
2023-03-15T13:18:19.000Z,277.52
2023-03-15T13:19:46.000Z,277.52
2023-03-15T13:21:52.000Z,277.65
2023-03-15T13:23:18.000Z,277.77
2023-03-15T13:25:24.000Z,277.9
2023-03-15T13:26:51.000Z,278.09
2023-03-15T13:28:57.000Z,278.02
2023-03-15T13:30:23.000Z,278.09
2023-03-15T13:32:30.000Z,278.4
2023-03-15T13:33:56.000Z,278.34
2023-03-15T13:36:02.000Z,278.4
2023-03-15T13:37:29.000Z,278.46
2023-03-15T13:39:35.000Z,278.71
2023-03-15T13:41:01.000Z,278.77
2023-03-15T13:43:07.000Z,278.96
2023-03-15T13:44:34.000Z,278.9
2023-03-15T13:46:40.000Z,278.71
2023-03-15T13:49:31.000Z,278.34
2023-03-15T13:50:58.000Z,278.27
2023-03-15T13:53:04.000Z,278.02
2023-03-15T13:54:31.000Z,278.09
2023-03-15T13:56:37.000Z,277.96
2023-03-15T13:58:14.000Z,277.9
2023-03-15T14:00:20.000Z,277.9
2023-03-15T14:01:46.000Z,277.96
2023-03-15T14:03:53.000Z,277.96
2023-03-15T14:05:19.000Z,277.96
2023-03-15T14:07:25.000Z,277.71
2023-03-15T14:08:52.000Z,277.46
2023-03-15T14:10:58.000Z,277.52
2023-03-15T14:12:24.000Z,277.4
2023-03-15T14:14:31.000Z,277.4
2023-03-15T14:15:57.000Z,277.4
2023-03-15T14:18:03.000Z,277.27
2023-03-15T14:19:30.000Z,277.21
2023-03-15T14:21:36.000Z,277.09
2023-03-15T14:23:03.000Z,277.09
2023-03-15T14:25:09.000Z,276.96
2023-03-15T14:28:00.000Z,276.84
2023-03-15T14:29:26.000Z,276.77
2023-03-15T14:31:33.000Z,276.77
2023-03-15T14:32:59.000Z,276.77
2023-03-15T14:35:05.000Z,276.77
2023-03-15T14:36:32.000Z,276.9
2023-03-15T14:38:38.000Z,277.09
2023-03-15T14:40:05.000Z,276.9
2023-03-15T14:42:11.000Z,276.71
2023-03-15T14:43:37.000Z,276.65
2023-03-15T14:45:43.000Z,276.96
2023-03-15T14:47:10.000Z,276.9
2023-03-15T14:49:16.000Z,276.96
2023-03-15T14:50:43.000Z,277.15
2023-03-15T14:52:49.000Z,277.02
2023-03-15T14:54:15.000Z,276.96
2023-03-15T14:56:21.000Z,277.02
2023-03-15T14:57:48.000Z,277.02
2023-03-15T14:59:54.000Z,277.02
2023-03-15T15:01:20.000Z,277.09
2023-03-15T15:03:27.000Z,277.15
2023-03-15T15:06:18.000Z,277.27
2023-03-15T15:07:44.000Z,277.4
2023-03-15T15:09:50.000Z,277.59
2023-03-15T15:11:17.000Z,277.59
2023-03-15T15:13:23.000Z,277.27
2023-03-15T15:14:50.000Z,277.27
2023-03-15T15:16:56.000Z,277.34
2023-03-15T15:18:22.000Z,277.15
2023-03-15T15:20:28.000Z,276.96
2023-03-15T15:21:55.000Z,276.84
2023-03-15T15:24:01.000Z,277.02
2023-03-15T15:25:27.000Z,277.09
2023-03-15T15:27:33.000Z,277.21
2023-03-15T15:29:00.000Z,277.4
2023-03-15T15:31:06.000Z,277.21
2023-03-15T15:32:33.000Z,277.34
2023-03-15T15:34:39.000Z,277.21
2023-03-15T15:36:05.000Z,277.27
2023-03-15T15:38:12.000Z,277.4
2023-03-15T15:39:38.000Z,277.4
2023-03-15T15:41:44.000Z,277.52
2023-03-15T15:44:36.000Z,277.65
2023-03-15T15:46:02.000Z,277.4
2023-03-15T15:48:08.000Z,277.34
2023-03-15T15:49:35.000Z,277.4
2023-03-15T15:51:43.000Z,277.4
2023-03-15T15:53:09.000Z,277.4
2023-03-15T15:55:15.000Z,277.21
2023-03-15T15:56:42.000Z,277.27
2023-03-15T15:58:48.000Z,277.27
2023-03-15T16:00:15.000Z,277.34
2023-03-15T16:02:21.000Z,277.27
2023-03-15T16:03:47.000Z,277.4
2023-03-15T16:05:54.000Z,277.46
2023-03-15T16:07:20.000Z,277.46
2023-03-15T16:09:26.000Z,277.4
2023-03-15T16:10:53.000Z,277.46
2023-03-15T16:12:59.000Z,277.46
2023-03-15T16:14:25.000Z,277.46
2023-03-15T16:16:32.000Z,277.46
2023-03-15T16:17:58.000Z,277.52
2023-03-15T16:20:06.000Z,277.4
2023-03-15T16:22:58.000Z,277.46
2023-03-15T16:24:24.000Z,277.46
2023-03-15T16:26:30.000Z,277.4
2023-03-15T16:27:57.000Z,277.27
2023-03-15T16:30:03.000Z,277.21
2023-03-15T16:31:30.000Z,277.09
2023-03-15T16:33:36.000Z,277.09
2023-03-15T16:35:03.000Z,276.96
2023-03-15T16:37:09.000Z,276.9
2023-03-15T16:38:35.000Z,276.84
2023-03-15T16:40:41.000Z,276.77
2023-03-15T16:42:08.000Z,276.71
2023-03-15T16:44:14.000Z,276.65
2023-03-15T16:45:41.000Z,276.59
2023-03-15T16:47:47.000Z,276.46
2023-03-15T16:49:13.000Z,276.4
2023-03-15T16:51:19.000Z,276.34
2023-03-15T16:52:46.000Z,276.34
2023-03-15T16:54:52.000Z,276.27
2023-03-15T16:56:19.000Z,276.27
2023-03-15T16:58:25.000Z,276.21
2023-03-15T17:01:16.000Z,276.15
2023-03-15T17:02:43.000Z,276.15
2023-03-15T17:04:49.000Z,276.02
2023-03-15T17:06:15.000Z,276.02
2023-03-15T17:08:21.000Z,276.02
2023-03-15T17:09:48.000Z,275.96
2023-03-15T17:11:54.000Z,275.84
2023-03-15T17:13:21.000Z,275.77
2023-03-15T17:15:27.000Z,275.59
2023-03-15T17:16:53.000Z,275.59
2023-03-15T17:18:59.000Z,275.52
2023-03-15T17:20:26.000Z,275.59
2023-03-15T17:22:32.000Z,275.46
2023-03-15T17:23:59.000Z,275.46
2023-03-15T17:26:05.000Z,275.4
2023-03-15T17:27:32.000Z,275.21
2023-03-15T17:29:38.000Z,275.34
2023-03-15T17:31:04.000Z,275.15
2023-03-15T17:33:28.000Z,275.09
2023-03-15T17:34:54.000Z,275.09
2023-03-15T17:37:01.000Z,275.02
2023-03-15T17:39:52.000Z,274.96
2023-03-15T17:41:18.000Z,274.9
2023-03-15T17:43:24.000Z,274.65
2023-03-15T17:44:51.000Z,274.46
2023-03-15T17:46:57.000Z,274.21
2023-03-15T17:48:24.000Z,274.15
2023-03-15T17:50:30.000Z,273.96
2023-03-15T17:51:56.000Z,273.96
2023-03-15T17:54:02.000Z,273.84
2023-03-15T17:55:29.000Z,273.84
2023-03-15T17:57:35.000Z,273.65
2023-03-15T17:59:07.000Z,273.65
2023-03-15T18:01:13.000Z,273.65
2023-03-15T18:02:40.000Z,273.65
2023-03-15T18:04:53.000Z,273.52
2023-03-15T18:06:20.000Z,273.59
2023-03-15T18:08:26.000Z,273.52
2023-03-15T18:09:53.000Z,273.46
2023-03-15T18:11:59.000Z,273.34
2023-03-15T18:13:25.000Z,273.27
2023-03-15T18:15:29.000Z,273.27
2023-03-15T18:18:20.000Z,273.21
2023-03-15T18:19:45.000Z,273.15
2023-03-15T18:21:49.000Z,273.15
2023-03-15T18:23:13.000Z,273.09
2023-03-15T18:25:17.000Z,273.02
2023-03-15T18:26:41.000Z,273.02
2023-03-15T18:28:45.000Z,273.02
2023-03-15T18:30:09.000Z,273.09
2023-03-15T18:32:13.000Z,273.15
2023-03-15T18:33:37.000Z,273.02
2023-03-15T18:35:41.000Z,272.96
2023-03-15T18:37:05.000Z,272.96
2023-03-15T18:39:09.000Z,272.96
2023-03-15T18:40:33.000Z,272.96
2023-03-15T18:42:37.000Z,272.96
2023-03-15T18:44:01.000Z,272.96
2023-03-15T18:46:05.000Z,272.9
2023-03-15T18:47:29.000Z,272.9
2023-03-15T18:49:33.000Z,272.84
2023-03-15T18:50:57.000Z,272.84
2023-03-15T18:53:01.000Z,272.71
2023-03-15T18:55:53.000Z,272.77
2023-03-15T18:57:17.000Z,272.77
2023-03-15T18:59:21.000Z,272.71
2023-03-15T19:00:48.000Z,272.71
2023-03-15T19:02:51.000Z,272.77
2023-03-15T19:04:16.000Z,272.77
2023-03-15T19:06:19.000Z,272.77
2023-03-15T19:07:44.000Z,272.84
2023-03-15T19:11:22.000Z,272.84
2023-03-15T19:11:55.000Z,272.84
2023-03-15T19:13:20.000Z,272.77
2023-03-15T19:15:23.000Z,272.77
2023-03-15T19:16:48.000Z,272.77
2023-03-15T19:18:51.000Z,272.84
2023-03-15T19:20:16.000Z,272.84
2023-03-15T19:22:19.000Z,272.77
2023-03-15T19:23:44.000Z,272.77
2023-03-15T19:25:47.000Z,272.71
2023-03-15T19:27:11.000Z,272.65
2023-03-15T19:29:15.000Z,272.65
2023-03-15T19:30:39.000Z,272.59
2023-03-15T19:32:43.000Z,272.65
2023-03-15T19:35:26.000Z,272.65
2023-03-15T19:36:51.000Z,272.59
2023-03-15T19:38:54.000Z,272.59
2023-03-15T19:40:19.000Z,272.59
2023-03-15T19:42:22.000Z,272.52
2023-03-15T19:43:47.000Z,272.52
2023-03-15T19:45:50.000Z,272.59
2023-03-15T19:47:15.000Z,272.59
2023-03-15T19:49:18.000Z,272.59
2023-03-15T19:50:43.000Z,272.59
2023-03-15T19:52:46.000Z,272.52
2023-03-15T19:54:10.000Z,272.46
2023-03-15T19:56:14.000Z,272.4
2023-03-15T19:57:39.000Z,272.52
2023-03-15T19:59:42.000Z,272.52
2023-03-15T20:01:06.000Z,272.52
2023-03-15T20:03:10.000Z,272.52
2023-03-15T20:04:34.000Z,272.46
2023-03-15T20:06:38.000Z,272.4
2023-03-15T20:08:02.000Z,272.34
2023-03-15T20:10:06.000Z,272.34
2023-03-15T20:12:55.000Z,272.34
2023-03-15T20:14:20.000Z,272.4
2023-03-15T20:16:23.000Z,272.46
2023-03-15T20:17:48.000Z,272.46
2023-03-15T20:19:51.000Z,272.4
2023-03-15T20:21:16.000Z,272.34
2023-03-15T20:23:19.000Z,272.27
2023-03-15T20:24:43.000Z,272.34
2023-03-15T20:26:47.000Z,272.27
2023-03-15T20:28:11.000Z,272.34
2023-03-15T20:30:15.000Z,272.34
2023-03-15T20:31:39.000Z,272.34
2023-03-15T20:33:43.000Z,272.27
2023-03-15T20:35:07.000Z,272.21
2023-03-15T20:37:11.000Z,272.15
2023-03-15T20:38:35.000Z,272.21
2023-03-15T20:40:39.000Z,272.21
2023-03-15T20:42:03.000Z,272.09
2023-03-15T20:44:07.000Z,271.96
2023-03-15T20:45:31.000Z,271.96
2023-03-15T20:47:34.000Z,271.96
2023-03-15T20:51:56.000Z,271.9
2023-03-15T20:53:54.000Z,271.96
2023-03-15T20:55:19.000Z,271.96
2023-03-15T20:57:22.000Z,272.02
2023-03-15T20:58:46.000Z,272.02
2023-03-15T21:00:50.000Z,271.9
2023-03-15T21:02:14.000Z,271.9
2023-03-15T21:04:18.000Z,271.84
2023-03-15T21:05:42.000Z,271.9
2023-03-15T21:07:46.000Z,271.9
2023-03-15T21:09:10.000Z,271.9
2023-03-15T21:11:14.000Z,271.84
2023-03-15T21:12:38.000Z,271.84
2023-03-15T21:14:42.000Z,271.84
2023-03-15T21:16:06.000Z,271.77
2023-03-15T21:18:10.000Z,271.71
2023-03-15T21:19:34.000Z,271.65
2023-03-15T21:21:37.000Z,271.65
2023-03-15T21:23:02.000Z,271.71
2023-03-15T21:25:05.000Z,271.65
2023-03-15T21:26:30.000Z,271.59
2023-03-15T21:28:33.000Z,271.46
2023-03-15T21:31:23.000Z,271.52
2023-03-15T21:32:47.000Z,271.52
2023-03-15T21:34:51.000Z,271.46
2023-03-15T21:36:15.000Z,271.52
2023-03-15T21:38:19.000Z,271.46
2023-03-15T21:39:43.000Z,271.52
2023-03-15T21:41:46.000Z,271.46
2023-03-15T21:43:11.000Z,271.46
2023-03-15T21:45:14.000Z,271.46
2023-03-15T21:46:39.000Z,271.52
2023-03-15T21:48:42.000Z,271.46
2023-03-15T21:50:07.000Z,271.46
2023-03-15T21:52:10.000Z,271.46
2023-03-15T21:53:35.000Z,271.4
2023-03-15T21:55:38.000Z,271.4
2023-03-15T21:57:03.000Z,271.34
2023-03-15T21:59:06.000Z,271.27
2023-03-15T22:00:31.000Z,271.27
2023-03-15T22:02:34.000Z,271.21
2023-03-15T22:03:59.000Z,271.21
2023-03-15T22:06:02.000Z,271.21
2023-03-15T22:08:51.000Z,271.27
2023-03-15T22:10:16.000Z,271.21
2023-03-15T22:12:19.000Z,271.21
2023-03-15T22:13:44.000Z,271.15
2023-03-15T22:15:47.000Z,271.09
2023-03-15T22:17:11.000Z,271.09
2023-03-15T22:19:15.000Z,271.09
2023-03-15T22:20:39.000Z,271.09
2023-03-15T22:22:43.000Z,271.02
2023-03-15T22:24:07.000Z,271.02
2023-03-15T22:26:11.000Z,271.02
2023-03-15T22:27:35.000Z,271.02
2023-03-15T22:29:39.000Z,270.96
2023-03-15T22:31:03.000Z,270.96
2023-03-15T22:33:07.000Z,271.02
2023-03-15T22:34:31.000Z,271.02
2023-03-15T22:36:35.000Z,271.02
2023-03-15T22:37:59.000Z,271.02
2023-03-15T22:40:03.000Z,270.96
2023-03-15T22:41:27.000Z,270.9
2023-03-15T22:43:31.000Z,270.84
2023-03-15T22:47:53.000Z,270.84
2023-03-15T22:49:51.000Z,270.77